createdAt,value
2017-09-05T00:00:19.261Z,946.2
2017-09-05T00:01:27.470Z,946.2
2017-09-05T00:02:35.440Z,946.2
2017-09-05T00:03:43.528Z,946.2
2017-09-05T00:04:51.712Z,946.2
2017-09-05T00:05:59.861Z,946.2
2017-09-05T00:07:07.851Z,946.2
2017-09-05T00:08:15.914Z,946.2
2017-09-05T00:09:23.972Z,946.1
2017-09-05T00:10:32.177Z,946.1
2017-09-05T00:11:40.145Z,946.2
2017-09-05T00:12:48.433Z,946.2
2017-09-05T00:13:56.417Z,946.2
2017-09-05T00:15:04.413Z,946.2
2017-09-05T00:16:12.502Z,946.2
2017-09-05T00:17:20.600Z,946.2
2017-09-05T00:18:28.808Z,946.2
2017-09-05T00:19:36.805Z,946.2
2017-09-05T00:20:44.888Z,946.2
2017-09-05T00:21:52.986Z,946.2
2017-09-05T00:23:01.077Z,946.2
2017-09-05T00:24:09.234Z,946.2
2017-09-05T00:25:17.251Z,946.2
2017-09-05T00:26:25.396Z,946.2
2017-09-05T00:27:33.430Z,946.2
2017-09-05T00:28:41.517Z,946.2
2017-09-05T00:29:49.672Z,946.2
2017-09-05T00:30:57.704Z,946.2
2017-09-05T00:32:05.791Z,946.2
2017-09-05T00:33:13.879Z,946.2
2017-09-05T00:34:21.969Z,946.2
2017-09-05T00:35:30.181Z,946.2
2017-09-05T00:36:38.152Z,946.2
2017-09-05T00:37:46.233Z,946.2
2017-09-05T00:38:54.342Z,946.2
2017-09-05T00:40:02.416Z,946.2
2017-09-05T00:41:10.568Z,946.1
2017-09-05T00:42:18.715Z,946.2
2017-09-05T00:43:26.682Z,946.1
2017-09-05T00:44:34.771Z,946.2
2017-09-05T00:45:42.856Z,946.2
2017-09-05T00:46:51.066Z,946.2
2017-09-05T00:47:59.034Z,946.2
2017-09-05T00:49:07.123Z,946.2
2017-09-05T00:50:15.222Z,946.2
2017-09-05T00:51:23.393Z,946.2
2017-09-05T00:52:31.453Z,946.2
2017-09-05T00:53:39.680Z,946.2
2017-09-05T00:54:47.571Z,946.2
2017-09-05T00:55:55.661Z,946.2
2017-09-05T00:57:03.749Z,946.2
2017-09-05T00:58:11.958Z,946.2
2017-09-05T00:59:19.956Z,946.2
2017-09-05T01:00:28.012Z,946.2
2017-09-05T01:01:36.099Z,946.2
2017-09-05T01:02:44.189Z,946.3
2017-09-05T01:03:52.543Z,946.3
2017-09-05T01:05:00.405Z,946.3
2017-09-05T01:06:08.507Z,946.3
2017-09-05T01:07:16.595Z,946.3
2017-09-05T01:08:24.681Z,946.2
2017-09-05T01:09:32.828Z,946.3
2017-09-05T01:10:40.859Z,946.2
2017-09-05T01:11:48.942Z,946.2
2017-09-05T01:12:57.141Z,946.2
2017-09-05T01:14:05.284Z,946.2
2017-09-05T01:15:13.330Z,946.2
2017-09-05T01:16:21.300Z,946.3
2017-09-05T01:17:29.406Z,946.3
2017-09-05T01:18:37.477Z,946.2
2017-09-05T01:19:45.565Z,946.3
2017-09-05T01:20:53.707Z,946.3
2017-09-05T01:22:01.741Z,946.3
2017-09-05T01:23:09.831Z,946.3
2017-09-05T01:24:17.917Z,946.3
2017-09-05T01:25:26.007Z,946.3
2017-09-05T01:26:34.326Z,946.3
2017-09-05T01:27:42.184Z,946.3
2017-09-05T01:28:50.270Z,946.3
2017-09-05T01:29:58.416Z,946.3
2017-09-05T01:31:06.446Z,946.3
2017-09-05T01:32:14.653Z,946.3
2017-09-05T01:33:22.623Z,946.3
2017-09-05T01:34:30.714Z,946.3
2017-09-05T01:35:38.881Z,946.3
2017-09-05T01:36:47.031Z,946.3
2017-09-05T01:37:55.038Z,946.3
2017-09-05T01:39:03.067Z,946.3
2017-09-05T01:40:11.244Z,946.3
2017-09-05T01:41:19.250Z,946.3
2017-09-05T01:42:27.334Z,946.3
2017-09-05T01:43:35.475Z,946.3
2017-09-05T01:44:43.686Z,946.4
2017-09-05T01:45:51.838Z,946.3
2017-09-05T01:46:59.686Z,946.4
2017-09-05T01:48:07.774Z,946.3
2017-09-05T01:49:16.012Z,946.3
2017-09-05T01:50:23.989Z,946.3
2017-09-05T01:51:32.033Z,946.3
2017-09-05T01:52:40.124Z,946.4
2017-09-05T01:53:48.212Z,946.3
2017-09-05T01:54:56.373Z,946.3
2017-09-05T01:56:04.480Z,946.3
2017-09-05T01:57:12.570Z,946.3
2017-09-05T01:58:20.833Z,946.3
2017-09-05T01:59:28.748Z,946.3
2017-09-05T02:00:36.952Z,946.3
2017-09-05T02:01:45.127Z,946.3
2017-09-05T02:02:53.291Z,946.3
2017-09-05T02:04:01.243Z,946.3
2017-09-05T02:05:09.330Z,946.3
2017-09-05T02:06:17.478Z,946.3
2017-09-05T02:07:25.509Z,946.3
2017-09-05T02:08:33.598Z,946.3
2017-09-05T02:09:41.686Z,946.3
2017-09-05T02:10:49.773Z,946.3
2017-09-05T02:11:58.013Z,946.3
2017-09-05T02:13:05.966Z,946.3
2017-09-05T02:14:14.059Z,946.3
2017-09-05T02:15:22.144Z,946.2
2017-09-05T02:16:30.232Z,946.2
2017-09-05T02:17:38.447Z,946.2
2017-09-05T02:18:46.411Z,946.2
2017-09-05T02:19:54.525Z,946.2
2017-09-05T02:21:02.614Z,946.2
2017-09-05T02:22:10.791Z,946.2
2017-09-05T02:23:18.856Z,946.2
2017-09-05T02:24:26.876Z,946.1
2017-09-05T02:25:35.015Z,946.1
2017-09-05T02:26:43.054Z,946.1
2017-09-05T02:27:51.141Z,946.1
2017-09-05T02:28:59.378Z,946.1
2017-09-05T02:30:07.419Z,946.1
2017-09-05T02:31:15.498Z,946.1
2017-09-05T02:32:23.590Z,946.1
2017-09-05T02:33:31.796Z,946.2
2017-09-05T02:34:39.818Z,946.1
2017-09-05T02:35:47.850Z,946.1
2017-09-05T02:36:55.944Z,946.1
2017-09-05T02:38:04.026Z,946.1
2017-09-05T02:39:12.114Z,946.1
2017-09-05T02:40:20.258Z,946.1
2017-09-05T02:41:28.290Z,946.1
2017-09-05T02:42:36.378Z,946.1
2017-09-05T02:43:44.464Z,946.1
2017-09-05T02:44:52.553Z,946.1
2017-09-05T02:46:00.763Z,946.1
2017-09-05T02:47:08.739Z,946.1
2017-09-05T02:48:16.938Z,946.1
2017-09-05T02:49:24.971Z,946.1
2017-09-05T02:50:33.002Z,946.1
2017-09-05T02:51:41.147Z,946.1
2017-09-05T02:52:49.184Z,946.1
2017-09-05T02:53:57.272Z,946.1
2017-09-05T02:55:05.370Z,946.1
2017-09-05T02:56:13.458Z,946.1
2017-09-05T02:57:21.667Z,946.1
2017-09-05T02:58:29.635Z,946.1
2017-09-05T02:59:37.722Z,946.1
2017-09-05T03:00:45.809Z,946.1
2017-09-05T03:01:54.067Z,946.1
2017-09-05T03:03:02.105Z,946.1
2017-09-05T03:04:10.073Z,946.1
2017-09-05T03:05:18.216Z,946.1
2017-09-05T03:06:26.408Z,946.1
2017-09-05T03:07:34.370Z,946.1
2017-09-05T03:08:42.545Z,946.1
2017-09-05T03:09:50.514Z,946.1
2017-09-05T03:10:58.766Z,946.1
2017-09-05T03:12:06.745Z,946.1
2017-09-05T03:13:14.774Z,946.0
2017-09-05T03:14:22.923Z,946.1
2017-09-05T03:15:31.122Z,946.1
2017-09-05T03:16:39.042Z,946.1
2017-09-05T03:17:47.133Z,946.1
2017-09-05T03:18:55.218Z,946.1
2017-09-05T03:20:03.552Z,946.1
2017-09-05T03:21:11.516Z,946.0
2017-09-05T03:22:19.480Z,946.0
2017-09-05T03:23:27.568Z,946.0
2017-09-05T03:24:35.656Z,946.0
2017-09-05T03:25:43.800Z,946.0
2017-09-05T03:26:51.833Z,946.0
2017-09-05T03:27:59.920Z,946.0
2017-09-05T03:29:08.031Z,946.0
2017-09-05T03:30:16.139Z,946.0
2017-09-05T03:31:24.244Z,946.0
2017-09-05T03:32:32.271Z,946.0
2017-09-05T03:33:40.446Z,946.0
2017-09-05T03:34:48.444Z,946.0
2017-09-05T03:35:56.538Z,946.0
2017-09-05T03:37:04.741Z,946.0
2017-09-05T03:38:12.708Z,946.0
2017-09-05T03:39:20.825Z,946.0
2017-09-05T03:40:28.886Z,946.0
2017-09-05T03:41:36.978Z,946.0
2017-09-05T03:42:45.118Z,945.9
2017-09-05T03:43:53.145Z,946.0
2017-09-05T03:45:01.234Z,946.0
2017-09-05T03:46:09.321Z,946.0
2017-09-05T03:47:17.420Z,946.0
2017-09-05T03:48:25.594Z,946.0
2017-09-05T03:49:33.595Z,946.0
2017-09-05T03:50:41.685Z,946.1
2017-09-05T03:51:49.955Z,946.0
2017-09-05T03:52:58.105Z,946.1
2017-09-05T03:54:06.002Z,946.1
2017-09-05T03:55:14.032Z,946.0
2017-09-05T03:56:22.122Z,946.1
2017-09-05T03:57:30.320Z,946.1
2017-09-05T03:58:38.369Z,946.1
2017-09-05T03:59:46.505Z,946.1
2017-09-05T04:00:54.471Z,946.1
2017-09-05T04:02:02.560Z,946.1
2017-09-05T04:03:10.648Z,946.1
2017-09-05T04:04:18.734Z,946.1
2017-09-05T04:05:26.879Z,946.1
2017-09-05T04:06:34.912Z,946.1
2017-09-05T04:07:43.126Z,946.0
2017-09-05T04:08:51.143Z,946.1
2017-09-05T04:09:59.174Z,946.1
2017-09-05T04:11:07.380Z,946.1
2017-09-05T04:12:15.348Z,946.1
2017-09-05T04:13:23.442Z,946.1
2017-09-05T04:14:31.519Z,946.0
2017-09-05T04:15:39.610Z,946.1
2017-09-05T04:16:47.755Z,946.1
2017-09-05T04:17:55.792Z,946.1
2017-09-05T04:19:03.878Z,946.1
2017-09-05T04:20:12.071Z,946.1
2017-09-05T04:21:20.122Z,946.1
2017-09-05T04:22:28.206Z,946.1
2017-09-05T04:23:36.247Z,946.1
2017-09-05T04:24:44.655Z,946.1
2017-09-05T04:25:52.419Z,946.1
2017-09-05T04:27:00.507Z,946.1
2017-09-05T04:28:08.651Z,946.1
2017-09-05T04:29:16.785Z,946.1
2017-09-05T04:30:24.771Z,946.1
2017-09-05T04:31:32.858Z,946.1
2017-09-05T04:32:40.946Z,946.1
2017-09-05T04:33:49.200Z,946.1
2017-09-05T04:34:57.117Z,946.1
2017-09-05T04:36:05.686Z,946.1
2017-09-05T04:37:13.291Z,946.1
2017-09-05T04:38:21.383Z,946.1
2017-09-05T04:39:29.528Z,946.1
2017-09-05T04:40:37.679Z,946.1
2017-09-05T04:41:45.646Z,946.1
2017-09-05T04:42:53.913Z,946.1
2017-09-05T04:44:01.850Z,946.1
2017-09-05T04:45:09.963Z,946.1
2017-09-05T04:46:17.993Z,946.1
2017-09-05T04:47:26.087Z,946.2
2017-09-05T04:48:34.289Z,946.1
2017-09-05T04:49:42.263Z,946.1
2017-09-05T04:50:50.405Z,946.2
2017-09-05T04:51:58.557Z,946.1
2017-09-05T04:53:06.553Z,946.1
2017-09-05T04:54:14.634Z,946.1
2017-09-05T04:55:22.725Z,946.2
2017-09-05T04:56:30.934Z,946.2
2017-09-05T04:57:38.903Z,946.2
2017-09-05T04:58:46.994Z,946.2
2017-09-05T04:59:55.081Z,946.2
2017-09-05T05:01:03.168Z,946.2
2017-09-05T05:02:11.381Z,946.2
2017-09-05T05:03:19.344Z,946.2
2017-09-05T05:04:27.431Z,946.2
2017-09-05T05:05:35.517Z,946.2
2017-09-05T05:06:43.662Z,946.3
2017-09-05T05:07:51.692Z,946.3
2017-09-05T05:08:59.782Z,946.3
2017-09-05T05:10:08.131Z,946.3
2017-09-05T05:11:15.960Z,946.3
2017-09-05T05:12:24.162Z,946.3
2017-09-05T05:13:32.131Z,946.4
2017-09-05T05:14:40.215Z,946.3
2017-09-05T05:15:48.312Z,946.4
2017-09-05T05:16:56.399Z,946.4
2017-09-05T05:18:04.543Z,946.4
2017-09-05T05:19:12.586Z,946.3
2017-09-05T05:20:20.727Z,946.3
2017-09-05T05:21:28.750Z,946.3
2017-09-05T05:22:36.841Z,946.3
2017-09-05T05:23:45.046Z,946.4
2017-09-05T05:24:53.172Z,946.3
2017-09-05T05:26:01.103Z,946.4
2017-09-05T05:27:09.188Z,946.4
2017-09-05T05:28:17.329Z,946.4
2017-09-05T05:29:25.476Z,946.3
2017-09-05T05:30:33.449Z,946.3
2017-09-05T05:31:41.535Z,946.3
2017-09-05T05:32:49.631Z,946.3
2017-09-05T05:33:57.717Z,946.3
2017-09-05T05:35:05.935Z,946.3
2017-09-05T05:36:13.903Z,946.3
2017-09-05T05:37:21.988Z,946.3
2017-09-05T05:38:30.074Z,946.3
2017-09-05T05:39:38.162Z,946.3
2017-09-05T05:40:46.306Z,946.3
2017-09-05T05:41:54.339Z,946.3
2017-09-05T05:43:02.427Z,946.3
2017-09-05T05:44:10.568Z,946.3
2017-09-05T05:45:18.600Z,946.3
2017-09-05T05:46:26.816Z,946.3
2017-09-05T05:47:34.790Z,946.3
2017-09-05T05:48:42.863Z,946.3
2017-09-05T05:49:50.949Z,946.3
2017-09-05T05:50:59.040Z,946.3
2017-09-05T05:52:07.178Z,946.3
2017-09-05T05:53:15.215Z,946.3
2017-09-05T05:54:23.299Z,946.3
2017-09-05T05:55:31.395Z,946.3
2017-09-05T05:56:39.697Z,946.2
2017-09-05T05:57:47.866Z,946.2
2017-09-05T05:58:55.687Z,946.2
2017-09-05T06:00:03.846Z,946.2
2017-09-05T06:01:12.068Z,946.2
2017-09-05T06:02:19.999Z,946.2
2017-09-05T06:03:28.105Z,946.2
2017-09-05T06:04:36.135Z,946.2
2017-09-05T06:05:44.223Z,946.2
2017-09-05T06:06:52.316Z,946.2
2017-09-05T06:08:00.397Z,946.3
2017-09-05T06:09:08.547Z,946.3
2017-09-05T06:10:16.576Z,946.2
2017-09-05T06:11:24.781Z,946.3
2017-09-05T06:12:32.744Z,946.3
2017-09-05T06:13:40.832Z,946.3
2017-09-05T06:14:48.973Z,946.3
2017-09-05T06:15:57.137Z,946.2
2017-09-05T06:17:05.104Z,946.2
2017-09-05T06:18:13.193Z,946.2
2017-09-05T06:19:21.282Z,946.2
2017-09-05T06:20:29.448Z,946.3
2017-09-05T06:21:37.454Z,946.3
2017-09-05T06:22:45.541Z,946.2
2017-09-05T06:23:53.811Z,946.3
2017-09-05T06:25:01.840Z,946.3
2017-09-05T06:26:09.865Z,946.3
2017-09-05T06:27:17.889Z,946.3
2017-09-05T06:28:26.146Z,946.3
2017-09-05T06:29:34.180Z,946.2
2017-09-05T06:30:42.149Z,946.3
2017-09-05T06:31:50.355Z,946.3
2017-09-05T06:32:58.323Z,946.3
2017-09-05T06:34:06.408Z,946.3
2017-09-05T06:35:14.495Z,946.3
2017-09-05T06:36:22.587Z,946.3
2017-09-05T06:37:30.725Z,946.3
2017-09-05T06:38:38.880Z,946.3
2017-09-05T06:39:46.846Z,946.3
2017-09-05T06:40:54.929Z,946.3
2017-09-05T06:42:03.017Z,946.3
2017-09-05T06:43:11.282Z,946.3
2017-09-05T06:44:19.190Z,946.3
2017-09-05T06:45:27.408Z,946.3
2017-09-05T06:46:35.368Z,946.3
2017-09-05T06:47:43.518Z,946.3
2017-09-05T06:48:51.597Z,946.4
2017-09-05T06:49:59.627Z,946.3
2017-09-05T06:51:07.788Z,946.3
2017-09-05T06:52:16.014Z,946.3
2017-09-05T06:53:23.963Z,946.3
2017-09-05T06:54:32.104Z,946.4
2017-09-05T06:55:40.136Z,946.4
2017-09-05T06:56:48.350Z,946.4
2017-09-05T06:57:56.310Z,946.4
2017-09-05T06:59:04.396Z,946.4
2017-09-05T07:00:12.607Z,946.4
2017-09-05T07:01:20.591Z,946.4
2017-09-05T07:02:28.676Z,946.4
2017-09-05T07:03:36.820Z,946.4
2017-09-05T07:04:44.852Z,946.4
2017-09-05T07:05:53.002Z,946.4
2017-09-05T07:07:01.025Z,946.4
2017-09-05T07:08:09.121Z,946.4
2017-09-05T07:09:17.203Z,946.4
2017-09-05T07:10:25.413Z,946.4
2017-09-05T07:11:33.436Z,946.4
2017-09-05T07:12:41.466Z,946.4
2017-09-05T07:13:49.562Z,946.5
2017-09-05T07:14:57.694Z,946.5
2017-09-05T07:16:05.737Z,946.5
2017-09-05T07:17:13.891Z,946.5
2017-09-05T07:18:21.918Z,946.5
2017-09-05T07:19:30.138Z,946.5
2017-09-05T07:20:38.106Z,946.5
2017-09-05T07:21:46.190Z,946.5
2017-09-05T07:22:54.336Z,946.5
2017-09-05T07:24:02.385Z,946.5
2017-09-05T07:25:10.461Z,946.5
2017-09-05T07:26:18.550Z,946.5
2017-09-05T07:27:26.637Z,946.5
2017-09-05T07:28:34.778Z,946.5
2017-09-05T07:29:42.866Z,946.5
2017-09-05T07:30:50.896Z,946.5
2017-09-05T07:31:58.984Z,946.5
2017-09-05T07:33:07.071Z,946.5
2017-09-05T07:34:15.437Z,946.5
2017-09-05T07:35:23.301Z,946.5
2017-09-05T07:36:31.342Z,946.5
2017-09-05T07:37:39.428Z,946.5
2017-09-05T07:38:47.525Z,946.5
2017-09-05T07:39:55.675Z,946.5
2017-09-05T07:41:03.699Z,946.5
2017-09-05T07:42:11.789Z,946.5
2017-09-05T07:43:19.874Z,946.5
2017-09-05T07:44:27.962Z,946.5
2017-09-05T07:45:36.167Z,946.5
2017-09-05T07:46:44.143Z,946.5
2017-09-05T07:47:52.223Z,946.6
2017-09-05T07:49:00.307Z,946.5
2017-09-05T07:50:08.394Z,946.5
2017-09-05T07:51:16.601Z,946.5
2017-09-05T07:52:24.569Z,946.5
2017-09-05T07:53:32.657Z,946.6
2017-09-05T07:54:40.742Z,946.6
2017-09-05T07:55:48.831Z,946.5
2017-09-05T07:56:57.089Z,946.6
2017-09-05T07:58:05.004Z,946.6
2017-09-05T07:59:13.092Z,946.6
2017-09-05T08:00:21.186Z,946.6
2017-09-05T08:01:29.314Z,946.5
2017-09-05T08:02:37.478Z,946.5
2017-09-05T08:03:45.466Z,946.6
2017-09-05T08:04:53.549Z,946.5
2017-09-05T08:06:01.659Z,946.6
2017-09-05T08:07:09.781Z,946.6
2017-09-05T08:08:17.866Z,946.6
2017-09-05T08:09:25.898Z,946.6
2017-09-05T08:10:34.092Z,946.6
2017-09-05T08:11:42.071Z,946.6
2017-09-05T08:12:50.166Z,946.6
2017-09-05T08:13:58.303Z,946.6
2017-09-05T08:15:06.336Z,946.6
2017-09-05T08:16:14.424Z,946.6
2017-09-05T08:17:22.508Z,946.6
2017-09-05T08:18:30.598Z,946.5
2017-09-05T08:19:38.748Z,946.6
2017-09-05T08:20:46.776Z,946.5
2017-09-05T08:21:54.863Z,946.5
2017-09-05T08:23:03.001Z,946.5
2017-09-05T08:24:11.221Z,946.5
2017-09-05T08:25:19.240Z,946.5
2017-09-05T08:26:27.205Z,946.5
2017-09-05T08:27:35.293Z,946.5
2017-09-05T08:28:43.379Z,946.6
2017-09-05T08:29:51.465Z,946.6
2017-09-05T08:30:59.610Z,946.6
2017-09-05T08:32:07.641Z,946.5
2017-09-05T08:33:15.924Z,946.5
2017-09-05T08:34:23.817Z,946.6
2017-09-05T08:35:31.906Z,946.6
2017-09-05T08:36:40.126Z,946.6
2017-09-05T08:37:48.085Z,946.5
2017-09-05T08:38:56.224Z,946.6
2017-09-05T08:40:04.254Z,946.6
2017-09-05T08:41:12.344Z,946.6
2017-09-05T08:42:20.495Z,946.5
2017-09-05T08:43:28.526Z,946.6
2017-09-05T08:44:36.614Z,946.6
2017-09-05T08:45:44.700Z,946.6
2017-09-05T08:46:52.783Z,946.6
2017-09-05T08:48:00.930Z,946.6
2017-09-05T08:49:08.964Z,946.5
2017-09-05T08:50:17.049Z,946.5
2017-09-05T08:51:25.142Z,946.5
2017-09-05T08:52:33.251Z,946.5
2017-09-05T08:53:41.369Z,946.5
2017-09-05T08:54:49.518Z,946.5
2017-09-05T08:55:57.488Z,946.6
2017-09-05T08:57:05.702Z,946.6
2017-09-05T08:58:13.659Z,946.6
2017-09-05T08:59:21.805Z,946.6
2017-09-05T09:00:30.004Z,946.6
2017-09-05T09:01:38.016Z,946.6
2017-09-05T09:02:46.013Z,946.5
2017-09-05T09:03:54.099Z,946.6
2017-09-05T09:05:02.245Z,946.6
2017-09-05T09:06:10.273Z,946.6
2017-09-05T09:07:18.364Z,946.5
2017-09-05T09:08:26.448Z,946.6
2017-09-05T09:09:34.577Z,946.6
2017-09-05T09:10:42.880Z,946.6
2017-09-05T09:11:50.712Z,946.6
2017-09-05T09:12:58.808Z,946.6
2017-09-05T09:14:06.901Z,946.6
2017-09-05T09:15:15.101Z,946.6
2017-09-05T09:16:23.127Z,946.6
2017-09-05T09:17:31.158Z,946.6
2017-09-05T09:18:39.256Z,946.6
2017-09-05T09:19:47.383Z,946.6
2017-09-05T09:20:55.429Z,946.7
2017-09-05T09:22:03.572Z,946.6
2017-09-05T09:23:11.626Z,946.6
2017-09-05T09:24:19.811Z,946.6
2017-09-05T09:25:27.813Z,946.6
2017-09-05T09:26:36.009Z,946.6
2017-09-05T09:27:44.048Z,946.6
2017-09-05T09:28:52.252Z,946.6
2017-09-05T09:30:00.174Z,946.5
2017-09-05T09:31:08.264Z,946.6
2017-09-05T09:32:16.345Z,946.6
2017-09-05T09:33:24.577Z,946.6
2017-09-05T09:34:32.521Z,946.6
2017-09-05T09:35:40.609Z,946.6
2017-09-05T09:36:48.697Z,946.6
2017-09-05T09:37:56.842Z,946.6
2017-09-05T09:39:04.942Z,946.6
2017-09-05T09:40:12.959Z,946.6
2017-09-05T09:41:21.048Z,946.6
2017-09-05T09:42:29.413Z,946.6
2017-09-05T09:43:37.230Z,946.6
2017-09-05T09:44:45.373Z,946.5
2017-09-05T09:45:53.411Z,946.6
2017-09-05T09:47:01.493Z,946.5
2017-09-05T09:48:09.581Z,946.5
2017-09-05T09:49:17.667Z,946.5
2017-09-05T09:50:25.827Z,946.5
2017-09-05T09:51:33.863Z,946.5
2017-09-05T09:52:41.945Z,946.5
2017-09-05T09:53:50.033Z,946.5
2017-09-05T09:54:58.119Z,946.5
2017-09-05T09:56:06.326Z,946.5
2017-09-05T09:57:14.308Z,946.5
2017-09-05T09:58:22.438Z,946.5
2017-09-05T09:59:30.469Z,946.5
2017-09-05T10:00:38.559Z,946.5
2017-09-05T10:01:46.710Z,946.5
2017-09-05T10:02:54.734Z,946.4
2017-09-05T10:04:02.820Z,946.4
2017-09-05T10:05:10.907Z,946.5
2017-09-05T10:06:19.101Z,946.4
2017-09-05T10:07:27.202Z,946.4
2017-09-05T10:08:35.171Z,946.5
2017-09-05T10:09:43.268Z,946.4
2017-09-05T10:10:51.355Z,946.5
2017-09-05T10:11:59.435Z,946.4
2017-09-05T10:13:07.576Z,946.4
2017-09-05T10:14:15.688Z,946.4
2017-09-05T10:15:23.785Z,946.5
2017-09-05T10:16:31.809Z,946.5
2017-09-05T10:17:39.895Z,946.5
2017-09-05T10:18:48.102Z,946.5
2017-09-05T10:19:56.070Z,946.5
2017-09-05T10:21:04.157Z,946.4
2017-09-05T10:22:12.262Z,946.5
2017-09-05T10:23:20.343Z,946.4
2017-09-05T10:24:28.490Z,946.4
2017-09-05T10:25:36.519Z,946.4
2017-09-05T10:26:44.612Z,946.4
2017-09-05T10:27:52.700Z,946.4
2017-09-05T10:29:00.822Z,946.4
2017-09-05T10:30:09.084Z,946.4
2017-09-05T10:31:16.962Z,946.3
2017-09-05T10:32:25.045Z,946.3
2017-09-05T10:33:33.131Z,946.3
2017-09-05T10:34:41.220Z,946.3
2017-09-05T10:35:49.363Z,946.2
2017-09-05T10:36:57.394Z,946.2
2017-09-05T10:38:05.482Z,946.2
2017-09-05T10:39:13.599Z,946.2
2017-09-05T10:40:21.659Z,946.2
2017-09-05T10:41:29.864Z,946.2
2017-09-05T10:42:37.996Z,946.2
2017-09-05T10:43:45.917Z,946.1
2017-09-05T10:44:54.001Z,946.2
2017-09-05T10:46:02.150Z,946.2
2017-09-05T10:47:10.302Z,946.2
2017-09-05T10:48:18.268Z,946.2
2017-09-05T10:49:26.353Z,946.2
2017-09-05T10:50:34.441Z,946.1
2017-09-05T10:51:42.534Z,946.1
2017-09-05T10:52:50.674Z,946.2
2017-09-05T10:53:58.704Z,946.2
2017-09-05T10:55:06.821Z,946.2
2017-09-05T10:56:14.910Z,946.2
2017-09-05T10:57:22.997Z,946.2
2017-09-05T10:58:31.145Z,946.2
2017-09-05T10:59:39.174Z,946.2
2017-09-05T11:00:47.449Z,946.1
2017-09-05T11:01:55.468Z,946.1
2017-09-05T11:03:03.441Z,946.1
2017-09-05T11:04:11.582Z,946.1
2017-09-05T11:05:19.807Z,946.0
2017-09-05T11:06:27.718Z,946.0
2017-09-05T11:07:35.809Z,946.0
2017-09-05T11:08:43.897Z,946.0
2017-09-05T11:09:52.218Z,946.0
2017-09-05T11:11:00.070Z,946.0
2017-09-05T11:12:08.156Z,946.0
2017-09-05T11:13:16.246Z,946.0
2017-09-05T11:14:24.332Z,946.0
2017-09-05T11:15:32.542Z,946.0
2017-09-05T11:16:40.506Z,946.0
2017-09-05T11:17:48.650Z,946.0
2017-09-05T11:18:56.850Z,946.0
2017-09-05T11:20:04.784Z,946.0
2017-09-05T11:21:12.963Z,946.0
2017-09-05T11:22:20.995Z,946.0
2017-09-05T11:23:29.210Z,946.0
2017-09-05T11:24:37.170Z,945.9
2017-09-05T11:25:45.258Z,945.9
2017-09-05T11:26:53.403Z,945.9
2017-09-05T11:28:01.434Z,945.9
2017-09-05T11:29:09.523Z,945.8
2017-09-05T11:30:17.609Z,945.8
2017-09-05T11:31:25.699Z,945.9
2017-09-05T11:32:33.907Z,945.8
2017-09-05T11:33:41.984Z,945.8
2017-09-05T11:34:49.960Z,945.8
2017-09-05T11:35:58.087Z,945.8
2017-09-05T11:37:06.176Z,945.8
2017-09-05T11:38:14.320Z,945.8
2017-09-05T11:39:22.351Z,945.8
2017-09-05T11:40:30.439Z,945.8
2017-09-05T11:41:38.527Z,945.8
2017-09-05T11:42:46.617Z,945.8
2017-09-05T11:43:54.767Z,945.8
2017-09-05T11:45:02.790Z,945.8
2017-09-05T11:46:10.942Z,945.8
2017-09-05T11:47:18.990Z,945.8
2017-09-05T11:48:27.076Z,945.8
2017-09-05T11:49:35.286Z,945.8
2017-09-05T11:50:43.255Z,945.8
2017-09-05T11:51:51.420Z,945.8
2017-09-05T11:52:59.429Z,945.7
2017-09-05T11:54:07.516Z,945.7
2017-09-05T11:55:15.669Z,945.7
2017-09-05T11:56:23.701Z,945.7
2017-09-05T11:57:31.800Z,945.7
2017-09-05T11:58:39.875Z,945.7
2017-09-05T11:59:47.964Z,945.7
2017-09-05T12:00:56.207Z,945.7
2017-09-05T12:02:04.138Z,945.7
2017-09-05T12:03:12.226Z,945.6
2017-09-05T12:04:20.313Z,945.7
2017-09-05T12:05:28.522Z,945.6
2017-09-05T12:06:36.547Z,945.7
2017-09-05T12:07:44.580Z,945.7
2017-09-05T12:08:52.664Z,945.7
2017-09-05T12:10:00.829Z,945.6
2017-09-05T12:11:08.840Z,945.6
2017-09-05T12:12:16.987Z,945.6
2017-09-05T12:13:25.019Z,945.6
2017-09-05T12:14:33.105Z,945.6
2017-09-05T12:15:41.195Z,945.6
2017-09-05T12:16:49.282Z,945.6
2017-09-05T12:17:57.423Z,945.5
2017-09-05T12:19:05.504Z,945.5
2017-09-05T12:20:13.543Z,945.5
2017-09-05T12:21:21.752Z,945.5
2017-09-05T12:22:29.721Z,945.5
2017-09-05T12:23:38.010Z,945.5
2017-09-05T12:24:45.901Z,945.4
2017-09-05T12:25:53.991Z,945.4
2017-09-05T12:27:02.079Z,945.4
2017-09-05T12:28:10.167Z,945.4
2017-09-05T12:29:18.312Z,945.4
2017-09-05T12:30:26.345Z,945.4
2017-09-05T12:31:34.433Z,945.4
2017-09-05T12:33:50.612Z,945.3
2017-09-05T12:34:58.819Z,945.4
2017-09-05T12:36:06.793Z,945.3
2017-09-05T12:37:14.938Z,945.3
2017-09-05T12:38:22.968Z,945.3
2017-09-05T12:39:31.057Z,945.3
2017-09-05T12:40:39.213Z,945.3
2017-09-05T12:41:47.234Z,945.3
2017-09-05T12:42:55.480Z,945.3
2017-09-05T12:44:03.410Z,945.3
2017-09-05T12:45:11.500Z,945.3
2017-09-05T12:46:19.713Z,945.3
2017-09-05T12:47:27.688Z,945.3
2017-09-05T12:48:35.785Z,945.2
2017-09-05T12:49:43.883Z,945.2
2017-09-05T12:50:51.958Z,945.2
2017-09-05T12:52:00.106Z,945.2
2017-09-05T12:53:08.255Z,945.1
2017-09-05T12:54:16.234Z,945.1
2017-09-05T12:55:24.322Z,945.2
2017-09-05T12:56:32.413Z,945.1
2017-09-05T12:57:40.558Z,945.1
2017-09-05T12:58:48.590Z,945.1
2017-09-05T12:59:56.677Z,945.1
2017-09-05T13:01:04.774Z,945.1
2017-09-05T13:02:12.873Z,945.1
2017-09-05T13:03:21.019Z,945.1
2017-09-05T13:04:29.169Z,945.0
2017-09-05T13:05:37.310Z,945.0
2017-09-05T13:06:45.272Z,945.1
2017-09-05T13:07:53.364Z,945.1
2017-09-05T13:09:01.663Z,945.1
2017-09-05T13:10:09.533Z,945.1
2017-09-05T13:11:17.624Z,945.1
2017-09-05T13:12:25.710Z,945.1
2017-09-05T13:13:33.876Z,945.1
2017-09-05T13:14:42.020Z,945.1
2017-09-05T13:15:49.987Z,945.0
2017-09-05T13:16:58.071Z,945.0
2017-09-05T13:18:06.237Z,945.0
2017-09-05T13:19:14.251Z,945.0
2017-09-05T13:20:22.394Z,944.9
2017-09-05T13:21:30.431Z,945.0
2017-09-05T13:22:38.569Z,945.0
2017-09-05T13:23:46.653Z,944.9
2017-09-05T13:24:54.860Z,945.0
2017-09-05T13:26:02.886Z,944.9
2017-09-05T13:27:11.037Z,945.0
2017-09-05T13:28:19.005Z,944.9
2017-09-05T13:29:27.093Z,944.9
2017-09-05T13:30:35.183Z,944.9
2017-09-05T13:31:43.392Z,944.8
2017-09-05T13:32:51.358Z,944.8
2017-09-05T13:33:59.445Z,944.9
2017-09-05T13:35:07.533Z,944.9
2017-09-05T13:36:15.622Z,945.0
2017-09-05T13:37:23.814Z,944.9
2017-09-05T13:38:31.795Z,944.9
2017-09-05T13:39:39.884Z,944.9
2017-09-05T13:40:48.096Z,945.0
2017-09-05T13:41:56.095Z,944.9
2017-09-05T13:43:04.203Z,944.9
2017-09-05T13:44:12.235Z,945.0
2017-09-05T13:45:20.329Z,944.9
2017-09-05T13:46:28.410Z,944.9
2017-09-05T13:47:36.499Z,944.9
2017-09-05T13:48:44.643Z,944.9
2017-09-05T13:49:52.675Z,944.9
2017-09-05T13:51:00.768Z,944.9
2017-09-05T13:52:08.859Z,944.8
2017-09-05T13:53:16.941Z,944.8
2017-09-05T13:54:25.085Z,944.8
2017-09-05T13:55:33.115Z,944.8
2017-09-05T13:56:41.327Z,944.8
2017-09-05T13:57:49.293Z,944.8
2017-09-05T13:58:57.381Z,944.8
2017-09-05T14:00:05.524Z,944.7
2017-09-05T14:01:13.558Z,944.8
2017-09-05T14:02:21.645Z,944.8
2017-09-05T14:03:29.742Z,944.8
2017-09-05T14:04:37.831Z,944.7
2017-09-05T14:05:45.976Z,944.7
2017-09-05T14:06:54.006Z,944.7
2017-09-05T14:08:02.105Z,944.7
2017-09-05T14:09:10.199Z,944.8
2017-09-05T14:10:18.277Z,944.8
2017-09-05T14:11:26.494Z,944.7
2017-09-05T14:12:34.520Z,944.8
2017-09-05T14:13:42.550Z,944.8
2017-09-05T14:14:50.644Z,944.8
2017-09-05T14:15:58.731Z,944.7
2017-09-05T14:17:06.938Z,944.7
2017-09-05T14:18:14.983Z,944.7
2017-09-05T14:19:22.995Z,944.7
2017-09-05T14:20:31.105Z,944.7
2017-09-05T14:21:39.192Z,944.7
2017-09-05T14:22:47.337Z,944.7
2017-09-05T14:23:55.367Z,944.7
2017-09-05T14:25:03.455Z,944.7
2017-09-05T14:26:11.741Z,944.7
2017-09-05T14:27:19.754Z,944.7
2017-09-05T14:28:27.868Z,944.7
2017-09-05T14:29:35.837Z,944.7
2017-09-05T14:30:43.923Z,944.7
2017-09-05T14:31:52.122Z,944.7
2017-09-05T14:33:00.101Z,944.7
2017-09-05T14:34:08.242Z,944.7
2017-09-05T14:35:16.438Z,944.7
2017-09-05T14:36:24.363Z,944.8
2017-09-05T14:37:32.452Z,944.8